sensor_id;sensor_type;location;lat;lon;timestamp;pressure;altitude;pressure_sealevel;temperature;humidity
46942;BME280;32676;52.630;4.896;2023-06-22T00:01:12;99179.19;;;17.90;80.59
46942;BME280;32676;52.630;4.896;2023-06-22T00:03:38;99157.75;;;17.81;80.23
46942;BME280;32676;52.630;4.896;2023-06-22T00:06:05;99163.66;;;17.85;80.35
46942;BME280;32676;52.630;4.896;2023-06-22T00:08:31;99146.28;;;17.81;80.63
46942;BME280;32676;52.630;4.896;2023-06-22T00:10:58;99164.59;;;17.84;80.58
46942;BME280;32676;52.630;4.896;2023-06-22T00:13:24;99153.53;;;17.79;80.39
46942;BME280;32676;52.630;4.896;2023-06-22T00:15:52;99161.25;;;17.82;80.52
46942;BME280;32676;52.630;4.896;2023-06-22T00:18:19;99151.88;;;17.78;80.49
46942;BME280;32676;52.630;4.896;2023-06-22T00:20:45;99147.66;;;17.75;80.79
46942;BME280;32676;52.630;4.896;2023-06-22T00:23:12;99160.81;;;17.77;80.60
46942;BME280;32676;52.630;4.896;2023-06-22T00:25:41;99151.31;;;17.74;81.00
46942;BME280;32676;52.630;4.896;2023-06-22T00:28:07;99165.16;;;17.78;80.99
46942;BME280;32676;52.630;4.896;2023-06-22T00:30:34;99174.09;;;17.77;81.21
46942;BME280;32676;52.630;4.896;2023-06-22T00:33:03;99171.44;;;17.77;81.09
46942;BME280;32676;52.630;4.896;2023-06-22T00:35:33;99156.75;;;17.73;81.31
46942;BME280;32676;52.630;4.896;2023-06-22T00:38:00;99178.72;;;17.75;81.32
46942;BME280;32676;52.630;4.896;2023-06-22T00:40:28;99177.88;;;17.74;80.77
46942;BME280;32676;52.630;4.896;2023-06-22T00:42:55;99159.69;;;17.70;80.45
46942;BME280;32676;52.630;4.896;2023-06-22T00:45:21;99131.97;;;17.62;79.92
46942;BME280;32676;52.630;4.896;2023-06-22T00:47:49;99115.75;;;17.56;79.90
46942;BME280;32676;52.630;4.896;2023-06-22T00:50:19;99079.25;;;17.48;79.98
46942;BME280;32676;52.630;4.896;2023-06-22T00:52:48;99066.25;;;17.45;80.33
46942;BME280;32676;52.630;4.896;2023-06-22T00:55:17;99058.69;;;17.40;80.56
46942;BME280;32676;52.630;4.896;2023-06-22T00:57:45;99035.22;;;17.36;80.94
46942;BME280;32676;52.630;4.896;2023-06-22T01:00:12;99019.81;;;17.30;80.91
46942;BME280;32676;52.630;4.896;2023-06-22T01:02:44;99023.47;;;17.29;81.29
46942;BME280;32676;52.630;4.896;2023-06-22T01:05:12;99047.81;;;17.34;81.33
46942;BME280;32676;52.630;4.896;2023-06-22T01:07:45;99058.25;;;17.35;81.43
46942;BME280;32676;52.630;4.896;2023-06-22T01:10:18;99067.09;;;17.36;81.51
46942;BME280;32676;52.630;4.896;2023-06-22T01:12:52;99050.59;;;17.32;81.16
46942;BME280;32676;52.630;4.896;2023-06-22T01:15:23;99042.06;;;17.29;80.89
46942;BME280;32676;52.630;4.896;2023-06-22T01:17:52;99042.06;;;17.29;81.06
46942;BME280;32676;52.630;4.896;2023-06-22T01:20:20;99017.03;;;17.21;80.68
46942;BME280;32676;52.630;4.896;2023-06-22T01:23:07;98990.19;;;17.15;80.83
46942;BME280;32676;52.630;4.896;2023-06-22T01:25:45;98977.34;;;17.10;80.92
46942;BME280;32676;52.630;4.896;2023-06-22T01:28:24;98972.16;;;17.08;81.31
46942;BME280;32676;52.630;4.896;2023-06-22T01:30:53;98968.66;;;17.08;81.58
46942;BME280;32676;52.630;4.896;2023-06-22T01:33:32;98964.59;;;17.04;81.82
46942;BME280;32676;52.630;4.896;2023-06-22T01:36:00;98949.94;;;17.00;82.18
46942;BME280;32676;52.630;4.896;2023-06-22T01:38:28;98937.94;;;16.96;82.25
46942;BME280;32676;52.630;4.896;2023-06-22T01:40:55;98939.88;;;16.94;82.06
46942;BME280;32676;52.630;4.896;2023-06-22T01:43:24;98949.38;;;16.96;82.44
46942;BME280;32676;52.630;4.896;2023-06-22T01:45:53;98948.53;;;16.96;82.28
46942;BME280;32676;52.630;4.896;2023-06-22T01:48:20;98955.50;;;16.97;82.49
46942;BME280;32676;52.630;4.896;2023-06-22T01:50:47;98957.22;;;16.98;82.55
46942;BME280;32676;52.630;4.896;2023-06-22T01:53:14;98969.78;;;16.96;82.22
46942;BME280;32676;52.630;4.896;2023-06-22T01:55:40;98984.44;;;17.00;82.29
46942;BME280;32676;52.630;4.896;2023-06-22T01:58:07;98985.41;;;16.99;82.38
46942;BME280;32676;52.630;4.896;2023-06-22T02:00:37;98969.78;;;16.96;82.37
46942;BME280;32676;52.630;4.896;2023-06-22T02:03:10;98985.69;;;16.96;82.42
46942;BME280;32676;52.630;4.896;2023-06-22T02:05:39;98995.06;;;17.00;82.51
46942;BME280;32676;52.630;4.896;2023-06-22T02:08:09;99013.38;;;17.03;82.28
46942;BME280;32676;52.630;4.896;2023-06-22T02:10:38;99012.66;;;17.01;82.21
46942;BME280;32676;52.630;4.896;2023-06-22T02:13:10;99003.28;;;16.97;82.12
46942;BME280;32676;52.630;4.896;2023-06-22T02:15:37;99000.75;;;16.95;82.10
46942;BME280;32676;52.630;4.896;2023-06-22T02:18:04;98992.94;;;16.94;82.08
46942;BME280;32676;52.630;4.896;2023-06-22T02:20:32;98992.22;;;16.92;82.16
46942;BME280;32676;52.630;4.896;2023-06-22T02:23:02;98996.56;;;16.93;81.99
46942;BME280;32676;52.630;4.896;2023-06-22T02:25:28;99000.19;;;16.92;82.09
46942;BME280;32676;52.630;4.896;2023-06-22T02:27:55;99003.81;;;16.91;82.43
46942;BME280;32676;52.630;4.896;2023-06-22T02:30:21;99028.84;;;16.98;82.21
46942;BME280;32676;52.630;4.896;2023-06-22T02:32:48;99052.31;;;17.02;82.39
46942;BME280;32676;52.630;4.896;2023-06-22T02:35:14;99044.50;;;17.01;82.31
46942;BME280;32676;52.630;4.896;2023-06-22T02:37:42;99053.31;;;17.01;82.11
46942;BME280;32676;52.630;4.896;2023-06-22T02:40:09;99049.09;;;16.99;82.01
46942;BME280;32676;52.630;4.896;2023-06-22T02:42:35;99038.75;;;16.96;82.08
46942;BME280;32676;52.630;4.896;2023-06-22T02:45:02;99026.72;;;16.92;82.09
46942;BME280;32676;52.630;4.896;2023-06-22T02:47:29;99021.69;;;16.88;82.02
46942;BME280;32676;52.630;4.896;2023-06-22T02:49:55;99021.69;;;16.88;82.13
46942;BME280;32676;52.630;4.896;2023-06-22T02:52:22;99033.97;;;16.89;82.38
46942;BME280;32676;52.630;4.896;2023-06-22T02:54:49;99021.97;;;16.85;82.30
46942;BME280;32676;52.630;4.896;2023-06-22T02:57:17;99007.16;;;16.83;82.33
46942;BME280;32676;52.630;4.896;2023-06-22T02:59:43;99007.25;;;16.81;82.55
46942;BME280;32676;52.630;4.896;2023-06-22T03:02:10;99006.56;;;16.79;82.65
46942;BME280;32676;52.630;4.896;2023-06-22T03:04:37;98997.03;;;16.77;82.54
46942;BME280;32676;52.630;4.896;2023-06-22T03:07:04;98983.22;;;16.73;82.76
46942;BME280;32676;52.630;4.896;2023-06-22T03:09:30;98990.19;;;16.74;82.48
46942;BME280;32676;52.630;4.896;2023-06-22T03:11:58;99009.34;;;16.78;82.51
46942;BME280;32676;52.630;4.896;2023-06-22T03:14:25;99020.78;;;16.78;82.93
46942;BME280;32676;52.630;4.896;2023-06-22T03:16:52;99026.78;;;16.80;82.62
46942;BME280;32676;52.630;4.896;2023-06-22T03:19:18;99036.44;;;16.81;83.07
46942;BME280;32676;52.630;4.896;2023-06-22T03:21:46;99037.41;;;16.80;82.40
46942;BME280;32676;52.630;4.896;2023-06-22T03:24:13;99032.22;;;16.79;82.44
46942;BME280;32676;52.630;4.896;2023-06-22T03:26:39;99034.03;;;16.78;82.34
46942;BME280;32676;52.630;4.896;2023-06-22T03:29:07;99026.34;;;16.75;82.40
46942;BME280;32676;52.630;4.896;2023-06-22T03:31:33;99015.03;;;16.73;82.47
46942;BME280;32676;52.630;4.896;2023-06-22T03:34:00;99016.97;;;16.71;82.42
46942;BME280;32676;52.630;4.896;2023-06-22T03:36:26;99021.34;;;16.72;82.54
46942;BME280;32676;52.630;4.896;2023-06-22T03:38:53;99031.94;;;16.72;82.78
46942;BME280;32676;52.630;4.896;2023-06-22T03:41:19;99060.44;;;16.80;82.80
46942;BME280;32676;52.630;4.896;2023-06-22T03:43:46;99082.28;;;16.83;82.74
46942;BME280;32676;52.630;4.896;2023-06-22T03:46:14;99068.53;;;16.78;82.43
46942;BME280;32676;52.630;4.896;2023-06-22T03:48:40;99086.75;;;16.83;82.50
46942;BME280;32676;52.630;4.896;2023-06-22T03:51:07;99094.56;;;16.84;82.71
46942;BME280;32676;52.630;4.896;2023-06-22T03:53:33;99120.56;;;16.91;82.52
46942;BME280;32676;52.630;4.896;2023-06-22T03:56:00;99158.88;;;16.98;82.35
46942;BME280;32676;52.630;4.896;2023-06-22T03:58:26;99202.19;;;17.08;82.13
46942;BME280;32676;52.630;4.896;2023-06-22T04:00:58;99235.50;;;17.12;81.62
46942;BME280;32676;52.630;4.896;2023-06-22T04:03:26;99238.84;;;17.14;81.50
46942;BME280;32676;52.630;4.896;2023-06-22T04:05:53;99263.19;;;17.19;81.47
46942;BME280;32676;52.630;4.896;2023-06-22T04:08:19;99301.53;;;17.26;81.30
46942;BME280;32676;52.630;4.896;2023-06-22T04:10:46;99330.91;;;17.35;81.25
46942;BME280;32676;52.630;4.896;2023-06-22T04:13:12;99356.97;;;17.41;81.36
46942;BME280;32676;52.630;4.896;2023-06-22T04:15:38;99383.94;;;17.46;80.77
46942;BME280;32676;52.630;4.896;2023-06-22T04:18:05;99407.59;;;17.49;80.91
46942;BME280;32676;52.630;4.896;2023-06-22T04:20:33;99418.22;;;17.49;80.87
46942;BME280;32676;52.630;4.896;2023-06-22T04:22:59;99457.16;;;17.60;81.06
46942;BME280;32676;52.630;4.896;2023-06-22T04:25:26;99493.00;;;17.65;80.95
46942;BME280;32676;52.630;4.896;2023-06-22T04:27:52;99536.44;;;17.76;80.98
46942;BME280;32676;52.630;4.896;2023-06-22T04:30:19;99568.78;;;17.81;80.63
46942;BME280;32676;52.630;4.896;2023-06-22T04:32:45;99593.88;;;17.88;80.49
46942;BME280;32676;52.630;4.896;2023-06-22T04:35:23;99625.28;;;17.94;80.30
46942;BME280;32676;52.630;4.896;2023-06-22T04:37:52;99672.25;;;18.05;80.00
46942;BME280;32676;52.630;4.896;2023-06-22T04:40:21;99715.88;;;18.14;79.86
46942;BME280;32676;52.630;4.896;2023-06-22T04:42:47;99747.25;;;18.20;79.65
46942;BME280;32676;52.630;4.896;2023-06-22T04:45:18;99778.66;;;18.26;79.55
46942;BME280;32676;52.630;4.896;2023-06-22T04:47:44;99808.16;;;18.34;79.45
46942;BME280;32676;52.630;4.896;2023-06-22T04:50:11;99849.25;;;18.41;79.15
46942;BME280;32676;52.630;4.896;2023-06-22T04:52:37;99886.69;;;18.50;79.45
46942;BME280;32676;52.630;4.896;2023-06-22T04:55:06;99926.84;;;18.58;79.38
46942;BME280;32676;52.630;4.896;2023-06-22T04:57:34;99969.53;;;18.68;79.52
46942;BME280;32676;52.630;4.896;2023-06-22T05:00:01;99998.44;;;18.72;79.23
46942;BME280;32676;52.630;4.896;2023-06-22T05:02:37;100050.00;;;18.83;79.46
46942;BME280;32676;52.630;4.896;2023-06-22T05:05:04;100108.31;;;18.97;79.31
46942;BME280;32676;52.630;4.896;2023-06-22T05:07:32;100144.13;;;19.04;79.23
46942;BME280;32676;52.630;4.896;2023-06-22T05:09:59;100198.28;;;19.16;79.04
46942;BME280;32676;52.630;4.896;2023-06-22T05:12:27;100234.00;;;19.25;79.02
46942;BME280;32676;52.630;4.896;2023-06-22T05:14:54;100280.34;;;19.33;78.88
46942;BME280;32676;52.630;4.896;2023-06-22T05:17:21;100307.38;;;19.40;78.58
46942;BME280;32676;52.630;4.896;2023-06-22T05:19:47;100349.53;;;19.46;78.60
46942;BME280;32676;52.630;4.896;2023-06-22T05:22:14;100385.16;;;19.56;78.71
46942;BME280;32676;52.630;4.896;2023-06-22T05:24:41;100456.09;;;19.70;78.81
46942;BME280;32676;52.630;4.896;2023-06-22T05:27:08;100515.66;;;19.82;79.06
46942;BME280;32676;52.630;4.896;2023-06-22T05:29:36;100579.44;;;19.97;78.65
46942;BME280;32676;52.630;4.896;2023-06-22T05:32:03;100633.72;;;20.08;78.57
46942;BME280;32676;52.630;4.896;2023-06-22T05:34:30;100694.00;;;20.22;78.61
46942;BME280;32676;52.630;4.896;2023-06-22T05:36:56;100755.22;;;20.37;78.67
46942;BME280;32676;52.630;4.896;2023-06-22T05:39:24;100843.63;;;20.56;78.59
46942;BME280;32676;52.630;4.896;2023-06-22T05:41:51;100905.88;;;20.69;78.26
46942;BME280;32676;52.630;4.896;2023-06-22T05:44:18;100954.97;;;20.80;78.07
46942;BME280;32676;52.630;4.896;2023-06-22T05:46:46;101011.13;;;20.91;78.29
46942;BME280;32676;52.630;4.896;2023-06-22T05:49:13;101044.44;;;20.98;77.99
46942;BME280;32676;52.630;4.896;2023-06-22T05:51:40;101077.78;;;21.05;78.23
46942;BME280;32676;52.630;4.896;2023-06-22T05:54:07;101113.03;;;21.11;78.09
46942;BME280;32676;52.630;4.896;2023-06-22T05:56:34;101130.44;;;21.16;78.21
46942;BME280;32676;52.630;4.896;2023-06-22T05:59:00;101165.63;;;21.23;77.92
46942;BME280;32676;52.630;4.896;2023-06-22T06:01:27;101198.94;;;21.30;78.28
46942;BME280;32676;52.630;4.896;2023-06-22T06:03:55;101240.09;;;21.40;78.29
46942;BME280;32676;52.630;4.896;2023-06-22T06:06:21;101277.00;;;21.48;78.02
46942;BME280;32676;52.630;4.896;2023-06-22T06:08:53;101312.19;;;21.55;78.20
46942;BME280;32676;52.630;4.896;2023-06-22T06:11:20;101353.38;;;21.65;78.33
46942;BME280;32676;52.630;4.896;2023-06-22T06:13:46;101414.03;;;21.77;77.81
46942;BME280;32676;52.630;4.896;2023-06-22T06:16:13;101458.88;;;21.87;77.32
46942;BME280;32676;52.630;4.896;2023-06-22T06:18:39;101519.56;;;21.99;76.98
46942;BME280;32676;52.630;4.896;2023-06-22T06:21:07;101538.09;;;22.02;76.95
46942;BME280;32676;52.630;4.896;2023-06-22T06:23:34;101547.72;;;22.04;76.77
46942;BME280;32676;52.630;4.896;2023-06-22T06:26:00;101566.16;;;22.09;76.51
46942;BME280;32676;52.630;4.896;2023-06-22T06:28:27;101571.50;;;22.09;75.76
46942;BME280;32676;52.630;4.896;2023-06-22T06:30:54;101557.38;;;22.07;75.24
46942;BME280;32676;52.630;4.896;2023-06-22T06:33:20;101569.56;;;22.11;75.45
46942;BME280;32676;52.630;4.896;2023-06-22T06:35:47;101603.94;;;22.17;75.57
46942;BME280;32676;52.630;4.896;2023-06-22T06:38:14;101604.91;;;22.16;75.46
46942;BME280;32676;52.630;4.896;2023-06-22T06:40:41;101663.00;;;22.29;74.48
46942;BME280;32676;52.630;4.896;2023-06-22T06:43:07;101676.91;;;22.34;74.08
46942;BME280;32676;52.630;4.896;2023-06-22T06:45:34;101720.88;;;22.44;73.76
46942;BME280;32676;52.630;4.896;2023-06-22T06:48:00;101777.25;;;22.55;73.66
46942;BME280;32676;52.630;4.896;2023-06-22T06:50:27;101765.88;;;22.52;72.41
46942;BME280;32676;52.630;4.896;2023-06-22T06:52:54;101788.59;;;22.59;72.57
46942;BME280;32676;52.630;4.896;2023-06-22T06:55:22;101755.06;;;22.53;72.25
46942;BME280;32676;52.630;4.896;2023-06-22T06:57:50;101780.66;;;22.57;71.64
46942;BME280;32676;52.630;4.896;2023-06-22T07:00:18;101771.88;;;22.55;72.08
46942;BME280;32676;52.630;4.896;2023-06-22T07:02:45;101856.38;;;22.74;72.17
46942;BME280;32676;52.630;4.896;2023-06-22T07:05:13;101926.09;;;22.87;72.20
46942;BME280;32676;52.630;4.896;2023-06-22T07:07:40;102011.34;;;23.09;71.65
46942;BME280;32676;52.630;4.896;2023-06-22T07:10:08;102043.97;;;23.15;70.25
46942;BME280;32676;52.630;4.896;2023-06-22T07:12:35;102073.16;;;23.20;69.57
46942;BME280;32676;52.630;4.896;2023-06-22T07:15:03;102063.19;;;23.22;68.62
46942;BME280;32676;52.630;4.896;2023-06-22T07:17:30;102069.50;;;23.21;68.31
46942;BME280;32676;52.630;4.896;2023-06-22T07:19:56;102116.13;;;23.33;68.95
46942;BME280;32676;52.630;4.896;2023-06-22T07:22:23;102150.50;;;23.41;68.51
46942;BME280;32676;52.630;4.896;2023-06-22T07:24:49;102184.84;;;23.48;68.77
46942;BME280;32676;52.630;4.896;2023-06-22T07:27:16;102182.09;;;23.50;69.09
46942;BME280;32676;52.630;4.896;2023-06-22T07:29:45;102166.22;;;23.47;67.88
46942;BME280;32676;52.630;4.896;2023-06-22T07:32:12;102159.19;;;23.44;67.16
46942;BME280;32676;52.630;4.896;2023-06-22T07:34:38;102152.00;;;23.45;67.24
46942;BME280;32676;52.630;4.896;2023-06-22T07:37:05;102171.56;;;23.47;67.38
46942;BME280;32676;52.630;4.896;2023-06-22T07:39:31;102183.91;;;23.49;66.96
46942;BME280;32676;52.630;4.896;2023-06-22T07:41:58;102235.72;;;23.64;66.50
46942;BME280;32676;52.630;4.896;2023-06-22T07:44:24;102293.00;;;23.77;66.67
46942;BME280;32676;52.630;4.896;2023-06-22T07:46:52;102382.16;;;23.97;66.83
46942;BME280;32676;52.630;4.896;2023-06-22T07:49:19;102432.41;;;24.09;66.48
46942;BME280;32676;52.630;4.896;2023-06-22T07:51:45;102516.44;;;24.26;65.87
46942;BME280;32676;52.630;4.896;2023-06-22T07:54:13;102535.03;;;24.29;64.75
46942;BME280;32676;52.630;4.896;2023-06-22T07:56:41;102564.00;;;24.38;64.49
46942;BME280;32676;52.630;4.896;2023-06-22T07:59:08;102611.63;;;24.50;64.44
46942;BME280;32676;52.630;4.896;2023-06-22T08:01:34;102632.09;;;24.53;64.57
46942;BME280;32676;52.630;4.896;2023-06-22T08:04:02;102679.63;;;24.67;64.12
46942;BME280;32676;52.630;4.896;2023-06-22T08:06:30;102753.84;;;24.84;64.22
46942;BME280;32676;52.630;4.896;2023-06-22T08:08:57;102818.41;;;24.98;63.23
46942;BME280;32676;52.630;4.896;2023-06-22T08:11:24;102859.03;;;25.08;62.58
46942;BME280;32676;52.630;4.896;2023-06-22T08:13:50;102882.88;;;25.14;62.32
46942;BME280;32676;52.630;4.896;2023-06-22T08:16:17;102958.16;;;25.30;62.87
46942;BME280;32676;52.630;4.896;2023-06-22T08:18:43;103029.84;;;25.47;62.58
46942;BME280;32676;52.630;4.896;2023-06-22T08:21:11;103123.72;;;25.67;62.50
46942;BME280;32676;52.630;4.896;2023-06-22T08:23:38;103055.53;;;25.53;60.99
46942;BME280;32676;52.630;4.896;2023-06-22T08:26:04;103022.53;;;25.49;61.06
46942;BME280;32676;52.630;4.896;2023-06-22T08:28:31;102965.81;;;25.38;61.97
46942;BME280;32676;52.630;4.896;2023-06-22T08:30:59;102982.50;;;25.43;61.67
46942;BME280;32676;52.630;4.896;2023-06-22T08:33:26;102970.97;;;25.41;60.21
46942;BME280;32676;52.630;4.896;2023-06-22T08:35:53;102954.81;;;25.41;60.67
46942;BME280;32676;52.630;4.896;2023-06-22T08:38:21;102964.66;;;25.42;60.42
46942;BME280;32676;52.630;4.896;2023-06-22T08:40:48;102949.44;;;25.41;60.34
46942;BME280;32676;52.630;4.896;2023-06-22T08:43:14;102984.84;;;25.49;60.41
46942;BME280;32676;52.630;4.896;2023-06-22T08:45:41;103023.69;;;25.59;60.34
46942;BME280;32676;52.630;4.896;2023-06-22T08:48:07;103069.69;;;25.71;60.16
46942;BME280;32676;52.630;4.896;2023-06-22T08:50:34;103069.88;;;25.67;59.54
46942;BME280;32676;52.630;4.896;2023-06-22T08:53:00;103079.31;;;25.75;59.39
46942;BME280;32676;52.630;4.896;2023-06-22T08:55:28;103053.41;;;25.58;59.36
46942;BME280;32676;52.630;4.896;2023-06-22T08:57:55;103067.56;;;25.76;59.61
46942;BME280;32676;52.630;4.896;2023-06-22T09:00:21;103095.00;;;25.82;59.41
46942;BME280;32676;52.630;4.896;2023-06-22T09:02:48;103073.75;;;25.78;59.23
46942;BME280;32676;52.630;4.896;2023-06-22T09:05:15;103069.31;;;25.77;59.63
46942;BME280;32676;52.630;4.896;2023-06-22T09:07:42;103120.50;;;25.91;59.79
46942;BME280;32676;52.630;4.896;2023-06-22T09:10:08;103055.84;;;25.77;58.65
46942;BME280;32676;52.630;4.896;2023-06-22T09:12:36;103056.78;;;25.76;58.41
46942;BME280;32676;52.630;4.896;2023-06-22T09:15:04;103079.50;;;25.86;58.33
46942;BME280;32676;52.630;4.896;2023-06-22T09:17:32;103099.81;;;25.92;58.40
46942;BME280;32676;52.630;4.896;2023-06-22T09:19:59;103093.56;;;25.91;58.43
46942;BME280;32676;52.630;4.896;2023-06-22T09:22:25;103123.72;;;25.98;58.58
46942;BME280;32676;52.630;4.896;2023-06-22T09:24:54;103185.81;;;26.11;59.03
46942;BME280;32676;52.630;4.896;2023-06-22T09:27:21;103221.06;;;26.22;58.87
46942;BME280;32676;52.630;4.896;2023-06-22T09:29:49;103249.38;;;26.29;58.25
46942;BME280;32676;52.630;4.896;2023-06-22T09:32:15;103255.47;;;26.33;58.28
46942;BME280;32676;52.630;4.896;2023-06-22T09:34:42;103244.00;;;26.29;58.04
46942;BME280;32676;52.630;4.896;2023-06-22T09:37:08;103224.34;;;26.27;58.54
46942;BME280;32676;52.630;4.896;2023-06-22T09:39:35;103185.25;;;26.20;58.45
46942;BME280;32676;52.630;4.896;2023-06-22T09:42:02;103150.50;;;26.15;58.02
46942;BME280;32676;52.630;4.896;2023-06-22T09:44:30;103136.25;;;26.13;57.50
46942;BME280;32676;52.630;4.896;2023-06-22T09:46:58;103155.03;;;26.15;58.03
46942;BME280;32676;52.630;4.896;2023-06-22T09:49:25;103176.00;;;26.24;58.14
46942;BME280;32676;52.630;4.896;2023-06-22T09:51:51;103219.53;;;26.32;57.80
46942;BME280;32676;52.630;4.896;2023-06-22T09:54:18;103294.84;;;26.50;58.33
46942;BME280;32676;52.630;4.896;2023-06-22T09:56:44;103291.97;;;26.53;57.28
46942;BME280;32676;52.630;4.896;2023-06-22T09:59:11;103301.78;;;26.54;57.33
46942;BME280;32676;52.630;4.896;2023-06-22T10:01:37;103292.75;;;26.55;57.73
46942;BME280;32676;52.630;4.896;2023-06-22T10:04:05;103260.78;;;26.49;58.19
46942;BME280;32676;52.630;4.896;2023-06-22T10:06:32;103203.06;;;26.37;57.80
46942;BME280;32676;52.630;4.896;2023-06-22T10:08:58;103207.41;;;26.39;58.31
46942;BME280;32676;52.630;4.896;2023-06-22T10:11:25;103234.00;;;26.46;58.65
46942;BME280;32676;52.630;4.896;2023-06-22T10:13:55;103191.22;;;26.39;58.36
46942;BME280;32676;52.630;4.896;2023-06-22T10:16:23;103189.50;;;26.38;58.13
46942;BME280;32676;52.630;4.896;2023-06-22T10:18:51;103124.63;;;26.27;58.42
46942;BME280;32676;52.630;4.896;2023-06-22T10:21:19;103134.22;;;26.31;58.44
46942;BME280;32676;52.630;4.896;2023-06-22T10:23:46;103104.19;;;26.23;59.02
46942;BME280;32676;52.630;4.896;2023-06-22T10:26:12;103120.94;;;26.28;58.83
46942;BME280;32676;52.630;4.896;2023-06-22T10:28:39;103157.34;;;26.35;58.73
46942;BME280;32676;52.630;4.896;2023-06-22T10:31:05;103143.09;;;26.33;57.53
46942;BME280;32676;52.630;4.896;2023-06-22T10:33:32;103142.91;;;26.36;57.31
46942;BME280;32676;52.630;4.896;2023-06-22T10:35:58;103116.13;;;26.33;57.33
46942;BME280;32676;52.630;4.896;2023-06-22T10:38:26;103118.72;;;26.35;57.32
46942;BME280;32676;52.630;4.896;2023-06-22T10:40:52;103103.59;;;26.32;57.80
46942;BME280;32676;52.630;4.896;2023-06-22T10:43:19;103107.09;;;26.34;57.19
46942;BME280;32676;52.630;4.896;2023-06-22T10:45:45;103153.28;;;26.42;57.19
46942;BME280;32676;52.630;4.896;2023-06-22T10:48:12;103231.13;;;26.63;57.51
46942;BME280;32676;52.630;4.896;2023-06-22T10:50:38;103257.91;;;26.66;57.05
46942;BME280;32676;52.630;4.896;2023-06-22T10:53:05;103311.88;;;26.80;56.72
46942;BME280;32676;52.630;4.896;2023-06-22T10:55:33;103352.56;;;26.92;56.46
46942;BME280;32676;52.630;4.896;2023-06-22T10:57:59;103356.09;;;26.92;56.60
46942;BME280;32676;52.630;4.896;2023-06-22T11:00:26;103401.31;;;27.03;55.72
46942;BME280;32676;52.630;4.896;2023-06-22T11:02:52;103417.16;;;27.09;55.18
46942;BME280;32676;52.630;4.896;2023-06-22T11:05:19;103478.38;;;27.23;55.71
46942;BME280;32676;52.630;4.896;2023-06-22T11:07:45;103500.50;;;27.30;55.18
46942;BME280;32676;52.630;4.896;2023-06-22T11:10:14;103512.00;;;27.33;55.60
46942;BME280;32676;52.630;4.896;2023-06-22T11:12:42;103534.09;;;27.40;55.46
46942;BME280;32676;52.630;4.896;2023-06-22T11:15:09;103594.59;;;27.52;56.24
46942;BME280;32676;52.630;4.896;2023-06-22T11:17:35;103564.19;;;27.48;54.33
46942;BME280;32676;52.630;4.896;2023-06-22T11:20:02;103513.34;;;27.41;52.97
46942;BME280;32676;52.630;4.896;2023-06-22T11:22:35;103474.28;;;27.32;52.93
46942;BME280;32676;52.630;4.896;2023-06-22T11:25:01;103445.75;;;27.28;52.97
46942;BME280;32676;52.630;4.896;2023-06-22T11:27:28;103426.94;;;27.26;53.72
46942;BME280;32676;52.630;4.896;2023-06-22T11:29:56;103417.09;;;27.25;54.48
46942;BME280;32676;52.630;4.896;2023-06-22T11:32:22;103399.31;;;27.21;54.23
46942;BME280;32676;52.630;4.896;2023-06-22T11:34:49;103369.94;;;27.16;54.25
46942;BME280;32676;52.630;4.896;2023-06-22T11:37:15;103376.84;;;27.20;54.86
46942;BME280;32676;52.630;4.896;2023-06-22T11:39:42;103373.31;;;27.20;55.27
46942;BME280;32676;52.630;4.896;2023-06-22T11:42:09;103404.28;;;27.29;55.17
46942;BME280;32676;52.630;4.896;2023-06-22T11:44:36;103361.50;;;27.21;53.50
46942;BME280;32676;52.630;4.896;2023-06-22T11:47:04;103322.38;;;27.14;53.83
46942;BME280;32676;52.630;4.896;2023-06-22T11:49:31;103300.09;;;27.10;54.77
46942;BME280;32676;52.630;4.896;2023-06-22T11:51:58;103245.94;;;26.99;54.10
46942;BME280;32676;52.630;4.896;2023-06-22T11:54:24;103216.47;;;26.96;54.77
46942;BME280;32676;52.630;4.896;2023-06-22T11:56:50;103191.63;;;26.91;55.24
46942;BME280;32676;52.630;4.896;2023-06-22T11:59:17;103188.81;;;26.92;55.32
46942;BME280;32676;52.630;4.896;2023-06-22T12:01:43;103180.84;;;26.91;55.31
46942;BME280;32676;52.630;4.896;2023-06-22T12:04:11;103138.25;;;26.81;54.93
46942;BME280;32676;52.630;4.896;2023-06-22T12:06:38;103165.59;;;26.90;55.63
46942;BME280;32676;52.630;4.896;2023-06-22T12:09:07;103154.03;;;26.88;54.81
46942;BME280;32676;52.630;4.896;2023-06-22T12:11:33;103174.34;;;26.93;54.56
46942;BME280;32676;52.630;4.896;2023-06-22T12:14:00;103151.34;;;26.88;53.93
46942;BME280;32676;52.630;4.896;2023-06-22T12:16:27;103084.69;;;26.75;53.40
46942;BME280;32676;52.630;4.896;2023-06-22T12:18:54;103072.19;;;26.74;53.41
46942;BME280;32676;52.630;4.896;2023-06-22T12:21:22;103061.41;;;26.74;53.58
46942;BME280;32676;52.630;4.896;2023-06-22T12:23:48;103050.59;;;26.74;53.48
46942;BME280;32676;52.630;4.896;2023-06-22T12:26:15;103040.88;;;26.72;53.54
46942;BME280;32676;52.630;4.896;2023-06-22T12:28:42;103051.47;;;26.75;53.57
46942;BME280;32676;52.630;4.896;2023-06-22T12:31:08;103014.13;;;26.69;52.60
46942;BME280;32676;52.630;4.896;2023-06-22T12:33:35;103018.44;;;26.71;52.19
46942;BME280;32676;52.630;4.896;2023-06-22T12:36:01;102999.75;;;26.68;51.66
46942;BME280;32676;52.630;4.896;2023-06-22T12:38:31;102961.63;;;26.60;51.25
46942;BME280;32676;52.630;4.896;2023-06-22T12:40:58;102933.09;;;26.56;51.09
46942;BME280;32676;52.630;4.896;2023-06-22T12:43:24;102904.63;;;26.52;51.23
46942;BME280;32676;52.630;4.896;2023-06-22T12:45:51;102890.38;;;26.50;51.50
46942;BME280;32676;52.630;4.896;2023-06-22T12:48:18;102879.78;;;26.47;52.21
46942;BME280;32676;52.630;4.896;2023-06-22T12:50:45;102869.00;;;26.47;51.95
46942;BME280;32676;52.630;4.896;2023-06-22T12:53:13;102850.34;;;26.43;52.30
46942;BME280;32676;52.630;4.896;2023-06-22T12:55:41;102844.22;;;26.41;52.43